Time;durP1;ratioP1;P1;durP2;ratioP2;P2;SDS_P1;SDS_P2;PMS_P1;PMS_P2;Temp;Humidity;BMP_temperature;BMP_pressure;BME280_temperature;BME280_humidity;BME280_pressure;Samples;Min_cycle;Max_cycle;Signal;HPM_P1;HPM_P2
2021/06/27 00:00:22;;;;;;;15.73;14.27;;;18.80;99.90;;;;;;5073762;28;20162;-71
2021/06/27 00:02:48;;;;;;;15.30;13.80;;;18.70;99.90;;;;;;5072906;28;20494;-72
2021/06/27 00:05:16;;;;;;;14.67;13.17;;;18.70;99.90;;;;;;5073520;28;20800;-72
2021/06/27 00:07:42;;;;;;;15.07;13.77;;;18.80;99.90;;;;;;5073754;28;20436;-71
2021/06/27 00:10:12;;;;;;;16.27;14.67;;;18.80;99.90;;;;;;5073561;28;20416;-71
2021/06/27 00:12:38;;;;;;;17.33;15.60;;;18.80;99.90;;;;;;5073992;28;20182;-71
2021/06/27 00:15:15;;;;;;;16.27;14.77;;;18.80;99.90;;;;;;5073922;28;20853;-71
2021/06/27 00:17:41;;;;;;;16.00;14.40;;;18.80;99.90;;;;;;5080469;28;20419;-72
2021/06/27 00:20:10;;;;;;;16.30;14.70;;;18.80;99.90;;;;;;5078478;28;20412;-71
2021/06/27 00:22:36;;;;;;;15.73;14.13;;;18.70;99.90;;;;;;5073041;28;20520;-72
2021/06/27 00:25:04;;;;;;;15.70;14.07;;;18.60;99.90;;;;;;5072862;28;20439;-72
2021/06/27 00:27:30;;;;;;;15.77;14.27;;;18.60;99.90;;;;;;5073060;28;20190;-71
2021/06/27 00:29:55;;;;;;;15.70;14.20;;;18.50;99.90;;;;;;5074110;28;20541;-72
2021/06/27 00:32:21;;;;;;;16.00;14.40;;;18.40;99.90;;;;;;5077128;28;20178;-72
2021/06/27 00:34:46;;;;;;;14.90;13.50;;;18.40;99.90;;;;;;5077737;28;20193;-72
2021/06/27 00:37:12;;;;;;;16.13;14.60;;;18.30;99.90;;;;;;5077942;28;20174;-72
2021/06/27 00:39:37;;;;;;;16.53;14.80;;;18.30;99.90;;;;;;5078313;28;20209;-72
2021/06/27 00:42:04;;;;;;;15.83;14.23;;;18.40;99.90;;;;;;5077323;28;20244;-71
2021/06/27 00:44:30;;;;;;;15.43;14.00;;;18.50;99.90;;;;;;5076507;28;20211;-71
2021/06/27 00:46:56;;;;;;;16.60;14.90;;;18.50;99.90;;;;;;5076860;28;20515;-71
2021/06/27 00:49:21;;;;;;;16.60;15.00;;;18.50;99.90;;;;;;5079366;28;20505;-71
2021/06/27 00:51:48;;;;;;;15.70;14.20;;;18.40;99.90;;;;;;5088213;28;20268;-71
2021/06/27 00:54:14;;;;;;;15.90;14.40;;;18.30;99.90;;;;;;5076925;28;20615;-71
2021/06/27 00:56:40;;;;;;;15.67;14.17;;;18.30;99.90;;;;;;5076499;28;20956;-71
2021/06/27 00:59:05;;;;;;;15.50;13.90;;;18.20;99.90;;;;;;5077655;28;20466;-71
2021/06/27 01:01:31;;;;;;;17.20;15.30;;;18.10;99.90;;;;;;5076523;28;20161;-71
2021/06/27 01:03:56;;;;;;;15.27;13.77;;;18.10;99.90;;;;;;5076402;28;20208;-71
2021/06/27 01:06:22;;;;;;;17.53;15.83;;;18.10;99.90;;;;;;5075073;28;20251;-71
2021/06/27 01:08:48;;;;;;;15.03;13.53;;;18.10;99.90;;;;;;5077081;28;20165;-71
2021/06/27 01:11:13;;;;;;;15.00;13.60;;;18.20;99.90;;;;;;5077278;28;20186;-71
2021/06/27 01:13:39;;;;;;;15.98;14.48;;;18.20;99.90;;;;;;5086631;28;20414;-71
2021/06/27 01:16:04;;;;;;;14.00;12.70;;;18.30;99.90;;;;;;5091938;28;20197;-71
2021/06/27 01:18:30;;;;;;;15.63;14.13;;;18.30;99.90;;;;;;5080885;28;20227;-71
2021/06/27 01:20:56;;;;;;;14.00;12.70;;;18.30;99.90;;;;;;5080099;28;20177;-71
2021/06/27 01:23:22;;;;;;;14.50;13.00;;;18.40;99.90;;;;;;5080030;28;20277;-71
2021/06/27 01:25:50;;;;;;;15.03;13.63;;;18.40;99.90;;;;;;5084733;28;20428;-71
2021/06/27 01:28:17;;;;;;;13.57;12.30;;;18.40;99.90;;;;;;5086315;28;20166;-71
2021/06/27 01:30:43;;;;;;;14.03;12.63;;;18.50;99.90;;;;;;5084478;28;20462;-71
2021/06/27 01:33:12;;;;;;;15.50;14.00;;;18.40;99.90;;;;;;5083623;28;20471;-72
2021/06/27 01:35:39;;;;;;;15.23;13.77;;;18.50;99.90;;;;;;5084807;28;20434;-71
2021/06/27 01:38:05;;;;;;;15.33;13.87;;;18.50;99.90;;;;;;5082824;28;20418;-71
2021/06/27 01:40:33;;;;;;;14.80;12.63;;;18.40;99.90;;;;;;5082243;28;20431;-71
2021/06/27 01:43:18;;;;;;;14.57;13.17;;;18.30;99.90;;;;;;5081629;28;20459;-71
2021/06/27 01:46:03;;;;;;;16.00;14.50;;;18.20;99.90;;;;;;5083934;28;20424;-71
2021/06/27 01:48:31;;;;;;;17.70;13.50;;;18.20;99.90;;;;;;5084590;28;20990;-71
2021/06/27 01:50:58;;;;;;;14.70;13.30;;;18.10;99.90;;;;;;5085662;28;20440;-72
2021/06/27 01:53:29;;;;;;;15.87;14.03;;;18.10;99.90;;;;;;5084071;28;20411;-72
2021/06/27 01:56:06;;;;;;;14.73;13.33;;;18.00;99.90;;;;;;5082729;28;20432;-72
2021/06/27 01:58:44;;;;;;;13.60;12.30;;;17.90;99.90;;;;;;5078858;28;20546;-72
2021/06/27 02:01:16;;;;;;;14.47;12.97;;;17.90;99.90;;;;;;5090532;28;20423;-72
2021/06/27 02:03:42;;;;;;;13.63;12.33;;;17.90;99.90;;;;;;5096213;28;20504;-72
2021/06/27 02:06:09;;;;;;;13.63;12.40;;;17.80;99.90;;;;;;5096672;28;20863;-72
2021/06/27 02:08:37;;;;;;;14.23;12.83;;;17.70;99.90;;;;;;5096321;28;20172;-71
2021/06/27 02:11:05;;;;;;;14.30;12.80;;;17.70;99.90;;;;;;5097923;28;20427;-71
2021/06/27 02:13:31;;;;;;;14.20;12.80;;;17.70;99.90;;;;;;5097880;28;20414;-71
2021/06/27 02:15:57;;;;;;;13.97;12.53;;;17.70;99.90;;;;;;5097184;28;20861;-71
2021/06/27 02:18:25;;;;;;;14.13;12.80;;;17.70;99.90;;;;;;5095338;28;20517;-72
2021/06/27 02:20:51;;;;;;;13.00;11.87;;;17.80;99.90;;;;;;5093876;28;20873;-71
2021/06/27 02:23:17;;;;;;;14.77;13.30;;;17.80;99.90;;;;;;5095177;28;20424;-72
2021/06/27 02:25:43;;;;;;;15.00;13.43;;;17.90;99.90;;;;;;5095316;28;20199;-72
2021/06/27 02:28:08;;;;;;;14.00;12.27;;;17.90;99.90;;;;;;5095915;28;20169;-72
2021/06/27 02:30:34;;;;;;;14.40;13.00;;;17.90;99.90;;;;;;5096117;28;20403;-72
2021/06/27 02:33:00;;;;;;;14.27;12.87;;;17.90;99.90;;;;;;5093333;28;20181;-72
2021/06/27 02:35:25;;;;;;;13.70;12.40;;;17.90;99.90;;;;;;5094936;28;20581;-72
2021/06/27 02:37:51;;;;;;;13.97;12.77;;;17.90;99.90;;;;;;5095311;28;20173;-72
2021/06/27 02:40:17;;;;;;;13.97;12.67;;;17.90;99.90;;;;;;5095206;28;20169;-71
2021/06/27 02:42:42;;;;;;;14.47;12.93;;;17.90;99.90;;;;;;5093189;28;20204;-71
2021/06/27 02:45:10;;;;;;;12.90;11.70;;;17.90;99.90;;;;;;5094972;28;20202;-71
2021/06/27 02:47:36;;;;;;;13.77;12.47;;;17.90;99.90;;;;;;5094992;28;20177;-71
2021/06/27 02:50:04;;;;;;;13.30;11.90;;;17.90;99.90;;;;;;5094751;28;20408;-71
2021/06/27 02:52:30;;;;;;;14.10;12.60;;;17.90;99.90;;;;;;5094294;28;20433;-72
2021/06/27 02:54:55;;;;;;;13.30;12.00;;;17.90;99.90;;;;;;5092591;28;20447;-72
2021/06/27 02:57:21;;;;;;;14.77;13.27;;;17.90;99.90;;;;;;5094713;28;20188;-72
2021/06/27 02:59:46;;;;;;;14.13;12.73;;;17.90;99.90;;;;;;5094948;28;20172;-72
2021/06/27 03:02:12;;;;;;;13.70;12.40;;;17.90;99.90;;;;;;5094771;28;20184;-72
2021/06/27 03:04:37;;;;;;;13.13;11.77;;;17.90;99.90;;;;;;5092535;28;20575;-72
2021/06/27 03:07:03;;;;;;;13.27;12.07;;;17.90;99.90;;;;;;5094468;28;20618;-72
2021/06/27 03:09:28;;;;;;;13.97;12.40;;;17.80;99.90;;;;;;5094815;28;20206;-72
2021/06/27 03:11:54;;;;;;;14.13;12.80;;;17.80;99.90;;;;;;5094861;28;20222;-72
2021/06/27 03:14:19;;;;;;;13.20;12.10;;;17.80;99.90;;;;;;5090335;28;20192;-72
2021/06/27 03:16:45;;;;;;;13.83;12.43;;;17.70;99.90;;;;;;5094471;28;20203;-72
2021/06/27 03:19:14;;;;;;;14.33;12.97;;;17.70;99.90;;;;;;5094682;28;20616;-72
2021/06/27 03:21:39;;;;;;;14.90;13.40;;;17.70;99.90;;;;;;5094023;28;20569;-72
2021/06/27 03:24:05;;;;;;;13.67;12.27;;;17.70;99.90;;;;;;5093739;28;20454;-72
2021/06/27 03:26:30;;;;;;;13.43;12.20;;;17.70;99.90;;;;;;5092309;28;20223;-72
2021/06/27 03:28:56;;;;;;;12.73;11.53;;;17.60;99.90;;;;;;5093987;28;20637;-72
2021/06/27 03:31:22;;;;;;;14.70;13.30;;;17.60;99.90;;;;;;5093965;28;20181;-72
2021/06/27 03:33:47;;;;;;;13.97;12.63;;;17.60;99.90;;;;;;5093520;28;20169;-72
2021/06/27 03:36:13;;;;;;;14.53;13.07;;;17.60;99.90;;;;;;5092492;28;20223;-72
2021/06/27 03:38:48;;;;;;;13.67;12.27;;;17.60;99.90;;;;;;5093702;28;20195;-72
2021/06/27 03:41:20;;;;;;;13.60;12.10;;;17.60;99.90;;;;;;5093568;28;20222;-72
2021/06/27 03:43:45;;;;;;;14.20;12.90;;;17.60;99.90;;;;;;5093355;28;20424;-72
2021/06/27 03:46:12;;;;;;;14.60;13.10;;;17.70;99.90;;;;;;5091519;28;20300;-72
2021/06/27 03:48:37;;;;;;;13.20;11.90;;;17.70;99.90;;;;;;5093625;28;20172;-71
2021/06/27 03:51:03;;;;;;;14.50;13.00;;;17.70;99.90;;;;;;5094550;28;20493;-72
2021/06/27 03:53:29;;;;;;;13.50;12.30;;;17.70;99.90;;;;;;5093402;28;20618;-71
2021/06/27 03:55:57;;;;;;;13.30;11.90;;;17.70;99.90;;;;;;5093502;28;20193;-71
2021/06/27 03:58:24;;;;;;;14.00;12.70;;;17.70;99.90;;;;;;5091231;28;20189;-71
2021/06/27 04:00:49;;;;;;;13.67;12.40;;;17.70;99.90;;;;;;5093340;28;20407;-71
2021/06/27 04:03:15;;;;;;;13.90;12.10;;;17.70;99.90;;;;;;5093346;28;20481;-72
2021/06/27 04:05:40;;;;;;;12.63;11.43;;;17.80;99.90;;;;;;5112834;28;20192;-71
2021/06/27 04:08:06;;;;;;;13.00;11.60;;;17.80;99.90;;;;;;5109721;28;20231;-71
2021/06/27 04:10:32;;;;;;;13.00;11.70;;;17.80;99.90;;;;;;5099082;28;20198;-71
2021/06/27 04:12:58;;;;;;;14.00;12.80;;;17.90;99.90;;;;;;5100143;28;20180;-72
2021/06/27 04:15:23;;;;;;;14.23;12.83;;;17.90;99.90;;;;;;5100110;28;20431;-71
2021/06/27 04:17:49;;;;;;;13.80;12.37;;;17.80;99.90;;;;;;5098739;28;20172;-71
2021/06/27 04:20:14;;;;;;;14.00;12.70;;;17.70;99.90;;;;;;5099375;28;20687;-72
2021/06/27 04:22:40;;;;;;;13.30;12.07;;;17.60;99.90;;;;;;5099487;28;20208;-72
2021/06/27 04:25:07;;;;;;;13.93;12.60;;;17.60;99.90;;;;;;5100049;28;20196;-73
2021/06/27 04:27:33;;;;;;;13.17;11.97;;;17.70;99.90;;;;;;5100093;28;20172;-72
2021/06/27 04:29:59;;;;;;;13.87;12.47;;;17.70;99.90;;;;;;5098772;28;20533;-71
2021/06/27 04:32:25;;;;;;;14.37;12.97;;;17.80;99.90;;;;;;5107351;28;20553;-72
2021/06/27 04:34:51;;;;;;;14.33;13.03;;;17.90;99.90;;;;;;5099203;28;20434;-72
2021/06/27 04:37:17;;;;;;;12.07;10.87;;;18.00;99.90;;;;;;5099739;28;20452;-71
2021/06/27 04:39:42;;;;;;;13.17;11.87;;;18.10;99.90;;;;;;5097966;28;20509;-72
2021/06/27 04:42:08;;;;;;;13.87;12.50;;;18.10;99.90;;;;;;5099499;28;20502;-72
2021/06/27 04:44:33;;;;;;;17.10;12.73;;;18.20;99.90;;;;;;5099438;28;20169;-71
2021/06/27 04:46:59;;;;;;;13.63;12.40;;;18.20;99.90;;;;;;5099710;28;20208;-71
2021/06/27 04:49:25;;;;;;;13.50;12.30;;;18.20;99.90;;;;;;5099742;28;20197;-72
2021/06/27 04:51:50;;;;;;;13.80;12.53;;;18.30;99.90;;;;;;5097875;28;20552;-72
2021/06/27 04:54:16;;;;;;;14.03;12.63;;;18.20;99.90;;;;;;5099067;28;20260;-72
2021/06/27 04:56:42;;;;;;;13.13;11.73;;;18.30;99.90;;;;;;5100085;28;20199;-72
2021/06/27 04:59:09;;;;;;;13.03;11.83;;;18.30;99.90;;;;;;5099150;28;20207;-72
2021/06/27 05:01:35;;;;;;;13.43;12.23;;;18.40;99.90;;;;;;5097620;28;20198;-72
2021/06/27 05:04:00;;;;;;;13.23;11.93;;;18.50;99.90;;;;;;5098710;28;20458;-72
2021/06/27 05:06:26;;;;;;;13.00;11.87;;;18.50;99.90;;;;;;5099388;28;20185;-72
2021/06/27 05:08:52;;;;;;;13.50;11.73;;;18.50;99.90;;;;;;5099457;28;20246;-72
2021/06/27 05:11:17;;;;;;;13.20;11.90;;;18.60;99.90;;;;;;5098026;28;20410;-72
2021/06/27 05:13:43;;;;;;;12.43;11.23;;;18.60;99.90;;;;;;5099439;28;20245;-72
2021/06/27 05:16:09;;;;;;;14.18;12.98;;;18.70;99.90;;;;;;5096982;28;20496;-71
2021/06/27 05:18:34;;;;;;;12.90;11.70;;;18.80;99.90;;;;;;5096083;28;20165;-72
2021/06/27 05:20:59;;;;;;;13.60;12.20;;;18.80;99.90;;;;;;5096391;28;20173;-71
2021/06/27 05:23:25;;;;;;;13.90;12.70;;;18.90;99.90;;;;;;5094234;28;20693;-72
2021/06/27 05:25:51;;;;;;;13.87;12.57;;;19.00;99.90;;;;;;5095808;28;20192;-71
2021/06/27 05:28:17;;;;;;;11.87;10.77;;;19.00;99.90;;;;;;5090023;28;20166;-72
2021/06/27 05:30:43;;;;;;;12.80;11.60;;;19.10;99.90;;;;;;5076071;28;20411;-71
2021/06/27 05:33:08;;;;;;;11.50;10.40;;;19.10;99.90;;;;;;5075815;28;20166;-72
2021/06/27 05:35:34;;;;;;;12.40;11.30;;;19.10;99.90;;;;;;5076196;28;20205;-71
2021/06/27 05:37:59;;;;;;;12.80;11.70;;;19.20;99.90;;;;;;5075770;28;20173;-71
2021/06/27 05:40:25;;;;;;;11.83;10.63;;;19.20;99.90;;;;;;5076844;28;20177;-71
2021/06/27 05:42:51;;;;;;;12.67;11.57;;;19.30;99.90;;;;;;5075626;28;20198;-71
2021/06/27 05:45:16;;;;;;;11.70;10.70;;;19.30;99.90;;;;;;5079146;28;20185;-71
2021/06/27 05:47:43;;;;;;;12.47;11.27;;;19.30;99.90;;;;;;5096146;28;20219;-72
2021/06/27 05:50:09;;;;;;;12.63;11.50;;;19.40;99.90;;;;;;5098640;28;20192;-72
2021/06/27 05:52:34;;;;;;;12.63;11.43;;;19.40;99.90;;;;;;5098668;28;20439;-73
2021/06/27 05:55:00;;;;;;;12.17;11.13;;;19.50;99.90;;;;;;5097387;28;20427;-72
2021/06/27 05:57:25;;;;;;;12.27;11.07;;;19.50;99.90;;;;;;5098512;28;20569;-72
2021/06/27 05:59:51;;;;;;;12.20;11.10;;;19.60;99.90;;;;;;5098119;28;20157;-72
2021/06/27 06:02:16;;;;;;;11.90;10.83;;;19.60;99.90;;;;;;5098196;28;20173;-72
2021/06/27 06:04:42;;;;;;;11.70;10.70;;;19.70;99.90;;;;;;5096374;28;20170;-72
2021/06/27 06:07:08;;;;;;;11.67;10.47;;;19.70;99.90;;;;;;5088713;28;20559;-72
2021/06/27 06:09:33;;;;;;;13.30;12.10;;;19.80;99.90;;;;;;5095765;28;20180;-71
2021/06/27 06:11:59;;;;;;;11.97;10.97;;;19.80;99.90;;;;;;5095032;28;20685;-71
2021/06/27 06:14:24;;;;;;;12.53;11.43;;;19.90;99.90;;;;;;5095765;28;20618;-71
2021/06/27 06:16:51;;;;;;;12.73;11.50;;;19.90;99.90;;;;;;5095403;28;20204;-72
2021/06/27 06:19:20;;;;;;;12.13;11.00;;;20.00;99.90;;;;;;5093515;28;20180;-71
2021/06/27 06:21:47;;;;;;;11.53;10.53;;;20.00;99.90;;;;;;5084444;28;20435;-71
2021/06/27 06:24:13;;;;;;;11.80;10.70;;;20.10;99.90;;;;;;5082120;28;20464;-71
2021/06/27 06:26:39;;;;;;;11.30;10.20;;;20.20;99.90;;;;;;5090002;28;20480;-71
2021/06/27 06:29:04;;;;;;;11.17;10.20;;;20.20;99.90;;;;;;5092386;28;20974;-71
2021/06/27 06:31:30;;;;;;;11.43;10.43;;;20.20;99.90;;;;;;5075158;28;20776;-72
2021/06/27 06:33:56;;;;;;;10.70;9.70;;;20.30;99.90;;;;;;5074090;28;20446;-72
2021/06/27 06:36:22;;;;;;;12.30;11.20;;;20.40;99.90;;;;;;5074740;28;20416;-72
2021/06/27 06:38:47;;;;;;;11.50;10.43;;;20.40;99.90;;;;;;5075820;28;20184;-73
2021/06/27 06:41:13;;;;;;;11.20;10.10;;;20.50;99.90;;;;;;5074897;28;20176;-72
2021/06/27 06:43:38;;;;;;;10.90;9.97;;;20.60;99.90;;;;;;5074896;28;20574;-72
2021/06/27 06:46:04;;;;;;;10.90;9.90;;;20.60;99.90;;;;;;5093638;28;20197;-73
2021/06/27 06:48:30;;;;;;;10.13;9.23;;;20.70;99.90;;;;;;5095578;28;20181;-72
2021/06/27 06:50:55;;;;;;;11.20;10.10;;;20.70;99.90;;;;;;5092491;28;20203;-71
2021/06/27 06:53:21;;;;;;;10.83;9.87;;;20.80;99.90;;;;;;5094867;28;20180;-72
2021/06/27 06:55:46;;;;;;;9.83;8.93;;;20.80;99.90;;;;;;5085915;28;20694;-73
2021/06/27 06:58:12;;;;;;;11.47;10.10;;;20.90;99.90;;;;;;5093597;28;20622;-72
2021/06/27 07:00:38;;;;;;;10.67;9.67;;;21.00;99.90;;;;;;5093161;28;20256;-71
2021/06/27 07:03:04;;;;;;;10.20;9.30;;;21.00;99.90;;;;;;5089684;28;20235;-71
2021/06/27 07:05:29;;;;;;;10.30;9.40;;;21.10;99.90;;;;;;5074337;28;20189;-72
2021/06/27 07:07:55;;;;;;;9.93;9.03;;;21.10;99.90;;;;;;5074924;28;20170;-72
2021/06/27 07:10:21;;;;;;;9.67;8.87;;;21.20;99.90;;;;;;5078609;28;20649;-72
2021/06/27 07:12:47;;;;;;;10.70;9.70;;;21.30;99.90;;;;;;5094478;28;20413;-72
2021/06/27 07:15:13;;;;;;;10.97;9.50;;;21.40;99.90;;;;;;5094915;28;20196;-72
2021/06/27 07:17:39;;;;;;;8.77;7.97;;;21.40;99.90;;;;;;5095793;28;20181;-72
2021/06/27 07:20:09;;;;;;;9.20;8.40;;;21.60;99.90;;;;;;5098362;28;20755;-71
2021/06/27 07:22:35;;;;;;;8.70;8.00;;;21.70;99.90;;;;;;5092088;28;20220;-72
2021/06/27 07:25:00;;;;;;;8.43;7.63;;;21.70;99.90;;;;;;5075771;28;20514;-72
2021/06/27 07:27:26;;;;;;;9.00;8.10;;;21.80;99.90;;;;;;5075370;28;20444;-72
2021/06/27 07:29:52;;;;;;;8.43;7.73;;;21.90;99.90;;;;;;5082686;28;20539;-71
2021/06/27 07:32:20;;;;;;;9.90;9.10;;;22.00;99.90;;;;;;5073491;28;20578;-71
2021/06/27 07:34:46;;;;;;;10.00;9.10;;;22.10;99.90;;;;;;5084195;28;20378;-74
2021/06/27 07:37:11;;;;;;;8.57;7.87;;;22.10;99.90;;;;;;5095121;28;20907;-74
2021/06/27 07:39:37;;;;;;;8.90;8.20;;;22.20;99.90;;;;;;5095481;28;20184;-73
2021/06/27 07:42:02;;;;;;;8.90;7.83;;;22.30;99.90;;;;;;5096255;28;20169;-73
2021/06/27 07:44:28;;;;;;;8.70;7.90;;;22.40;99.90;;;;;;5098935;28;20222;-71
2021/06/27 07:46:53;;;;;;;8.80;8.10;;;22.50;99.90;;;;;;5095989;28;20217;-71
2021/06/27 07:49:19;;;;;;;8.30;7.27;;;22.50;99.90;;;;;;5076462;28;20272;-71
2021/06/27 07:51:44;;;;;;;8.80;8.00;;;22.60;99.90;;;;;;5077711;28;20181;-72
2021/06/27 07:54:10;;;;;;;9.30;8.50;;;22.70;99.90;;;;;;5092090;28;20504;-72
2021/06/27 07:56:35;;;;;;;8.70;7.90;;;22.80;99.90;;;;;;5093753;28;20197;-72
2021/06/27 07:59:01;;;;;;;8.53;7.73;;;22.90;99.90;;;;;;5092237;28;20631;-72
2021/06/27 08:01:26;;;;;;;8.70;7.90;;;23.00;99.90;;;;;;5091308;28;20751;-73
2021/06/27 08:03:52;;;;;;;8.83;8.13;;;23.10;99.90;;;;;;5092937;28;20454;-72
2021/06/27 08:06:18;;;;;;;8.83;8.10;;;23.20;99.90;;;;;;5093584;28;20561;-71
2021/06/27 08:08:44;;;;;;;8.33;7.60;;;23.30;99.90;;;;;;5093876;28;20638;-72
2021/06/27 08:11:09;;;;;;;8.23;7.53;;;23.30;99.90;;;;;;5093595;28;20422;-72
2021/06/27 08:13:36;;;;;;;8.70;7.90;;;23.50;99.90;;;;;;5092200;28;20644;-71
2021/06/27 08:16:01;;;;;;;8.30;7.43;;;23.60;99.80;;;;;;5093400;28;20193;-71
2021/06/27 08:18:27;;;;;;;7.97;7.37;;;23.70;99.20;;;;;;5092508;28;20501;-71
2021/06/27 08:20:52;;;;;;;9.27;8.40;;;23.80;99.10;;;;;;5091762;28;20565;-73
2021/06/27 08:23:18;;;;;;;8.10;7.43;;;23.90;98.70;;;;;;5093253;28;20192;-71
2021/06/27 08:25:43;;;;;;;8.13;7.33;;;24.00;98.60;;;;;;5093196;28;20195;-71
2021/06/27 08:28:09;;;;;;;8.93;8.23;;;24.20;98.60;;;;;;5092968;28;20180;-71
2021/06/27 08:30:35;;;;;;;7.70;7.00;;;24.20;98.00;;;;;;5080132;28;20169;-71
2021/06/27 08:33:00;;;;;;;7.50;6.83;;;24.40;97.90;;;;;;5078794;28;20201;-71
2021/06/27 08:35:26;;;;;;;7.40;6.80;;;24.50;97.60;;;;;;5093656;28;20254;-71
2021/06/27 08:37:52;;;;;;;7.70;7.10;;;24.60;97.50;;;;;;5093034;28;20169;-72
2021/06/27 08:40:19;;;;;;;8.13;7.53;;;24.80;97.10;;;;;;5093757;28;20173;-72
2021/06/27 08:42:45;;;;;;;7.80;7.20;;;24.80;96.90;;;;;;5077497;28;20983;-71
2021/06/27 08:45:13;;;;;;;7.83;7.20;;;24.80;96.30;;;;;;5073437;28;20420;-71
2021/06/27 08:47:39;;;;;;;7.20;6.70;;;25.00;96.10;;;;;;5073101;28;20268;-71
2021/06/27 08:50:10;;;;;;;7.57;6.97;;;25.10;95.80;;;;;;5073388;28;20450;-71
2021/06/27 08:52:38;;;;;;;7.30;6.70;;;25.20;95.70;;;;;;5076248;28;20416;-72
2021/06/27 08:55:05;;;;;;;7.33;6.73;;;25.30;95.40;;;;;;5076749;28;20435;-72
2021/06/27 08:57:31;;;;;;;7.13;6.53;;;25.40;95.20;;;;;;5077245;28;20480;-71
2021/06/27 08:59:59;;;;;;;6.80;6.30;;;25.60;94.70;;;;;;5077216;28;20845;-71
2021/06/27 09:02:25;;;;;;;6.70;6.20;;;25.70;94.40;;;;;;5079000;28;20583;-72
2021/06/27 09:04:50;;;;;;;6.83;6.33;;;25.80;94.20;;;;;;5097626;28;20505;-72
2021/06/27 09:07:28;;;;;;;6.30;5.90;;;25.80;93.60;;;;;;5097236;28;20161;-72
2021/06/27 09:09:59;;;;;;;6.63;5.93;;;26.00;93.20;;;;;;5097324;28;20255;-72
2021/06/27 09:12:24;;;;;;;6.43;5.97;;;26.10;92.70;;;;;;5097251;28;20429;-72
2021/06/27 09:14:54;;;;;;;6.87;6.30;;;26.10;92.30;;;;;;5080070;28;20419;-72
2021/06/27 09:17:25;;;;;;;6.27;5.80;;;26.20;92.00;;;;;;5076643;28;20193;-72
2021/06/27 09:19:55;;;;;;;6.90;6.20;;;26.20;92.10;;;;;;5077402;28;20383;-72
2021/06/27 09:22:22;;;;;;;5.93;5.43;;;26.30;91.80;;;;;;5079574;28;20400;-72
2021/06/27 09:24:48;;;;;;;6.37;5.87;;;26.40;91.50;;;;;;5092034;28;20776;-72
2021/06/27 09:27:24;;;;;;;6.53;5.93;;;26.50;91.20;;;;;;5105099;28;20912;-71
2021/06/27 09:29:55;;;;;;;6.40;5.90;;;26.50;91.30;;;;;;5078014;28;20465;-72
2021/06/27 09:32:23;;;;;;;6.33;5.83;;;26.50;90.70;;;;;;5077642;28;20472;-72
2021/06/27 09:34:50;;;;;;;6.03;5.60;;;26.50;90.50;;;;;;5096519;28;20431;-73
2021/06/27 09:37:26;;;;;;;5.87;5.47;;;26.60;90.50;;;;;;5097008;28;20402;-72
2021/06/27 09:39:57;;;;;;;7.90;7.10;;;26.60;90.40;;;;;;5089692;28;21022;-72
2021/06/27 09:42:23;;;;;;;7.20;6.60;;;26.60;90.60;;;;;;5076448;28;20428;-70
2021/06/27 09:45:02;;;;;;;6.90;6.40;;;26.60;90.70;;;;;;5075956;28;20489;-73
2021/06/27 09:47:28;;;;;;;7.17;6.57;;;26.70;90.60;;;;;;5076264;28;20165;-72
2021/06/27 09:49:54;;;;;;;7.17;6.57;;;26.70;90.70;;;;;;5077504;28;20420;-71
2021/06/27 09:52:38;;;;;;;6.73;6.23;;;26.70;90.70;;;;;;5077806;28;20166;-71
2021/06/27 09:55:11;;;;;;;6.60;6.00;;;26.80;90.40;;;;;;5093979;28;21003;-72
2021/06/27 09:57:37;;;;;;;6.90;6.30;;;26.90;90.20;;;;;;5095405;28;20905;-72
2021/06/27 10:00:25;;;;;;;6.63;6.23;;;26.90;90.40;;;;;;5093640;28;20169;-72
2021/06/27 10:03:04;;;;;;;7.60;7.03;;;26.70;90.50;;;;;;5095664;28;20485;-71
2021/06/27 10:05:29;;;;;;;6.70;6.20;;;26.60;90.70;;;;;;5096352;28;20549;-71
2021/06/27 10:07:56;;;;;;;7.50;6.93;;;26.70;91.00;;;;;;5096190;28;20896;-73
2021/06/27 10:10:22;;;;;;;7.00;6.50;;;26.70;91.00;;;;;;5093847;28;20502;-71
2021/06/27 10:12:48;;;;;;;7.90;7.27;;;26.60;91.00;;;;;;5080995;28;20419;-71
2021/06/27 10:15:15;;;;;;;7.47;6.97;;;26.70;90.80;;;;;;5079312;28;20847;-71
2021/06/27 10:17:42;;;;;;;7.03;6.53;;;26.70;90.80;;;;;;5079459;28;20219;-71
2021/06/27 10:20:13;;;;;;;6.97;6.47;;;26.70;90.80;;;;;;5079601;28;20406;-71
2021/06/27 10:22:39;;;;;;;7.33;6.83;;;26.70;90.70;;;;;;5096408;28;20423;-71
2021/06/27 10:25:08;;;;;;;6.90;6.40;;;26.70;91.00;;;;;;5097902;28;20450;-71
2021/06/27 10:27:34;;;;;;;7.10;6.60;;;26.70;90.70;;;;;;5099314;28;20540;-72
2021/06/27 10:30:02;;;;;;;7.00;6.50;;;26.50;90.60;;;;;;5090167;28;20478;-71
2021/06/27 10:32:28;;;;;;;6.83;6.20;;;26.60;90.40;;;;;;5082626;28;20271;-73
2021/06/27 10:34:55;;;;;;;7.27;6.67;;;26.70;90.40;;;;;;5101374;28;20449;-72
2021/06/27 10:37:34;;;;;;;7.03;6.43;;;26.60;90.20;;;;;;5107823;28;20503;-72
2021/06/27 10:40:04;;;;;;;7.30;6.47;;;26.50;90.30;;;;;;5104177;28;20403;-72
2021/06/27 10:42:48;;;;;;;6.73;6.27;;;26.50;90.40;;;;;;5098028;28;20923;-71
2021/06/27 10:45:15;;;;;;;7.10;6.43;;;26.60;90.10;;;;;;5098624;28;20502;-72
2021/06/27 10:47:40;;;;;;;6.50;6.00;;;26.70;89.90;;;;;;5098384;28;20900;-72
2021/06/27 10:50:10;;;;;;;6.73;6.23;;;26.80;89.50;;;;;;5098886;28;20402;-72
2021/06/27 10:52:51;;;;;;;7.53;6.20;;;26.90;89.70;;;;;;5097461;28;20184;-72
2021/06/27 10:55:19;;;;;;;6.20;5.73;;;27.10;89.60;;;;;;5078141;28;20491;-72
2021/06/27 10:58:06;;;;;;;6.90;6.40;;;27.10;87.90;;;;;;5078987;28;20454;-71
2021/06/27 11:00:52;;;;;;;6.70;6.20;;;27.00;87.60;;;;;;5086821;28;20376;-71
2021/06/27 11:03:27;;;;;;;6.23;5.83;;;27.10;87.50;;;;;;5087824;28;20470;-71
2021/06/27 11:05:57;;;;;;;6.50;6.00;;;27.20;87.80;;;;;;5078157;28;20504;-71
2021/06/27 11:08:31;;;;;;;6.53;6.03;;;27.30;86.30;;;;;;5079146;28;20415;-71
2021/06/27 11:11:00;;;;;;;7.50;6.90;;;27.30;85.60;;;;;;5079060;28;20737;-73
2021/06/27 11:13:25;;;;;;;7.33;6.83;;;27.40;85.50;;;;;;5078794;28;20411;-72
2021/06/27 11:15:51;;;;;;;7.40;6.80;;;27.50;85.40;;;;;;5077366;28;20410;-72
2021/06/27 11:18:40;;;;;;;6.80;6.37;;;27.50;85.30;;;;;;5078416;28;20165;-72
2021/06/27 11:21:17;;;;;;;6.63;6.20;;;27.50;85.30;;;;;;5078244;28;20154;-72
2021/06/27 11:24:02;;;;;;;6.90;6.40;;;27.60;85.00;;;;;;5074616;28;20455;-72
2021/06/27 11:26:42;;;;;;;6.37;5.90;;;27.50;84.50;;;;;;5075733;28;20532;-72
2021/06/27 11:29:23;;;;;;;6.63;6.03;;;27.40;84.80;;;;;;5073884;28;20403;-72
2021/06/27 11:31:53;;;;;;;6.17;5.77;;;27.40;85.60;;;;;;5074227;28;20403;-71
2021/06/27 11:34:28;;;;;;;7.10;6.50;;;27.40;85.00;;;;;;5090820;28;20423;-72
2021/06/27 11:37:21;;;;;;;7.40;6.80;;;27.40;85.00;;;;;;5093113;28;20464;-72
2021/06/27 11:39:47;;;;;;;5.90;5.47;;;27.60;85.10;;;;;;5097409;28;20900;-71
2021/06/27 11:42:27;;;;;;;5.83;5.43;;;27.80;84.50;;;;;;5097901;28;20410;-72
2021/06/27 11:45:05;;;;;;;6.17;5.70;;;27.90;82.40;;;;;;5097488;28;20169;-72
2021/06/27 11:47:50;;;;;;;6.23;5.73;;;27.90;81.10;;;;;;5095926;28;20441;-71
2021/06/27 11:50:17;;;;;;;6.73;6.23;;;27.70;82.10;;;;;;5097915;28;20387;-71
2021/06/27 11:52:43;;;;;;;6.20;5.80;;;27.70;81.40;;;;;;5094088;28;20435;-72
2021/06/27 11:55:10;;;;;;;6.00;5.50;;;27.70;81.20;;;;;;5093785;28;20438;-73
2021/06/27 11:57:40;;;;;;;7.33;5.73;;;27.70;81.80;;;;;;5092505;28;20483;-72
2021/06/27 12:00:07;;;;;;;9.13;6.70;;;27.60;84.60;;;;;;5093651;28;20433;-72
2021/06/27 12:02:33;;;;;;;7.60;6.77;;;27.50;85.40;;;;;;5093696;28;20990;-72
2021/06/27 12:05:02;;;;;;;7.83;6.60;;;27.60;85.40;;;;;;5092061;28;20911;-72
2021/06/27 12:07:42;;;;;;;6.93;6.33;;;27.60;84.10;;;;;;5092000;28;20391;-72
2021/06/27 12:10:17;;;;;;;6.27;5.77;;;27.60;84.30;;;;;;5091930;28;20418;-73
2021/06/27 12:12:46;;;;;;;6.00;5.20;;;27.60;84.50;;;;;;5093255;28;20410;-72
2021/06/27 12:15:15;;;;;;;7.00;6.40;;;27.50;85.20;;;;;;5093453;28;20970;-73
2021/06/27 12:17:42;;;;;;;7.93;5.77;;;27.50;84.90;;;;;;5091279;28;20435;-73
2021/06/27 12:20:08;;;;;;;6.50;6.00;;;27.40;85.20;;;;;;5091736;28;21001;-73
2021/06/27 12:23:06;;;;;;;5.93;5.53;;;27.40;84.60;;;;;;5093099;28;20399;-72
2021/06/27 12:25:36;;;;;;;5.60;5.20;;;27.50;84.30;;;;;;5091382;28;20417;-72
2021/06/27 12:28:33;;;;;;;5.37;4.97;;;27.50;83.30;;;;;;5097644;28;20153;-72
2021/06/27 12:31:07;;;;;;;6.10;5.70;;;27.50;82.40;;;;;;5075084;28;20554;-72
2021/06/27 12:33:39;;;;;;;5.83;5.33;;;27.60;81.80;;;;;;5084056;28;20939;-72
2021/06/27 12:36:11;;;;;;;4.93;4.63;;;27.60;81.10;;;;;;5097069;28;20915;-72
2021/06/27 12:38:39;;;;;;;5.80;5.40;;;27.50;81.80;;;;;;5096114;28;21014;-73